KOA342 YSCB-YSSY
Flight info
| Callsign | KOA342 |
|---|---|
| Flight time | 0h 34m |
| Altitude | 15000 |
| Route | DCT CB W423 CULIN Y59 RIVET RIVET4 |
| Aircraft | A20N/M-SDE2E3FGHIJ1RWXY/LB1 |
Departure
| Time | 2026-04-21 07:21 |
|---|---|
| Airport | Canberra Airport (YSCB) |
Arrival
| Time | 2026-04-21 07:55 |
|---|---|
| Airport | Sydney Kingsford Smith International Airport (YSSY) |
| Time | Latitude | Longitude | Altitude | Speed | Heading |
|---|---|---|---|---|---|
| 2026-04-21 07:12 | -35.30855 | 149.19134 | 1878 ft | 0 kts | 291° |
| 2026-04-21 07:15 | -35.30867 | 149.19172 | 1877 ft | 10 kts | 291° |
| 2026-04-21 07:16 | -35.30886 | 149.19210 | 1879 ft | 8 kts | 316° |
| 2026-04-21 07:16 | -35.30906 | 149.19229 | 1877 ft | 0 kts | 331° |
| 2026-04-21 07:16 | -35.30924 | 149.19234 | 1880 ft | 0 kts | 359° |
| 2026-04-21 07:16 | -35.30920 | 149.19234 | 1880 ft | 5 kts | 359° |
| 2026-04-21 07:17 | -35.30826 | 149.19239 | 1883 ft | 16 kts | 0° |
| 2026-04-21 07:17 | -35.30635 | 149.19246 | 1883 ft | 41 kts | 2° |
| 2026-04-21 07:17 | -35.30308 | 149.19247 | 1879 ft | 49 kts | 359° |
| 2026-04-21 07:17 | -35.29975 | 149.19241 | 1876 ft | 48 kts | 359° |
| 2026-04-21 07:18 | -35.29652 | 149.19238 | 1879 ft | 45 kts | 0° |
| 2026-04-21 07:18 | -35.29354 | 149.19234 | 1880 ft | 42 kts | 359° |
| 2026-04-21 07:18 | -35.29083 | 149.19261 | 1881 ft | 32 kts | 36° |
| 2026-04-21 07:18 | -35.29068 | 149.19304 | 1887 ft | 8 kts | 91° |
| 2026-04-21 07:19 | -35.29071 | 149.19390 | 1887 ft | 12 kts | 92° |
| 2026-04-21 07:19 | -35.29096 | 149.19467 | 1884 ft | 5 kts | 174° |
| 2026-04-21 07:19 | -35.29134 | 149.19454 | 1885 ft | 7 kts | 195° |
| 2026-04-21 07:19 | -35.29188 | 149.19443 | 1881 ft | 9 kts | 181° |
| 2026-04-21 07:20 | -35.29343 | 149.19443 | 1883 ft | 53 kts | 180° |
| 2026-04-21 07:20 | -35.29949 | 149.19443 | 1877 ft | 118 kts | 180° |
| 2026-04-21 07:20 | -35.30943 | 149.19440 | 1885 ft | 165 kts | 177° |
| 2026-04-21 07:20 | -35.32124 | 149.19373 | 2358 ft | 171 kts | 178° |
| 2026-04-21 07:21 | -35.33272 | 149.19338 | 3160 ft | 158 kts | 175° |
| 2026-04-21 07:21 | -35.34379 | 149.19338 | 3825 ft | 165 kts | 175° |
| 2026-04-21 07:21 | -35.35601 | 149.19346 | 4344 ft | 183 kts | 175° |
| 2026-04-21 07:21 | -35.36924 | 149.19346 | 4768 ft | 199 kts | 177° |
| 2026-04-21 07:22 | -35.38386 | 149.19095 | 5094 ft | 227 kts | 193° |
| 2026-04-21 07:22 | -35.39953 | 149.18551 | 5689 ft | 245 kts | 195° |
| 2026-04-21 07:22 | -35.41677 | 149.18059 | 6434 ft | 257 kts | 183° |
| 2026-04-21 07:22 | -35.43438 | 149.18383 | 7372 ft | 260 kts | 159° |
| 2026-04-21 07:23 | -35.44942 | 149.19605 | 8248 ft | 269 kts | 135° |
| 2026-04-21 07:23 | -35.45901 | 149.21628 | 9220 ft | 278 kts | 109° |
| 2026-04-21 07:23 | -35.46071 | 149.23991 | 10140 ft | 288 kts | 89° |
| 2026-04-21 07:23 | -35.45578 | 149.26468 | 10627 ft | 315 kts | 66° |
| 2026-04-21 07:24 | -35.44218 | 149.28703 | 10935 ft | 343 kts | 43° |
| 2026-04-21 07:24 | -35.42157 | 149.30209 | 11464 ft | 358 kts | 19° |
| 2026-04-21 07:24 | -35.39699 | 149.30740 | 12286 ft | 363 kts | 3° |
| 2026-04-21 07:24 | -35.37162 | 149.30816 | 13083 ft | 361 kts | 1° |
| 2026-04-21 07:25 | -35.34661 | 149.30924 | 13429 ft | 368 kts | 4° |
| 2026-04-21 07:25 | -35.32089 | 149.31194 | 14149 ft | 373 kts | 6° |
| 2026-04-21 07:25 | -35.29497 | 149.31588 | 14856 ft | 377 kts | 8° |
| 2026-04-21 07:25 | -35.26877 | 149.32031 | 15202 ft | 381 kts | 7° |
| 2026-04-21 07:26 | -35.24244 | 149.32395 | 15327 ft | 382 kts | 6° |
| 2026-04-21 07:26 | -35.21604 | 149.32217 | 15251 ft | 379 kts | 357° |
| 2026-04-21 07:26 | -35.18957 | 149.32415 | 15340 ft | 382 kts | 8° |
| 2026-04-21 07:26 | -35.16337 | 149.32960 | 15346 ft | 381 kts | 10° |
| 2026-04-21 07:27 | -35.13730 | 149.33516 | 15344 ft | 381 kts | 9° |
| 2026-04-21 07:27 | -35.11099 | 149.34000 | 15347 ft | 382 kts | 8° |
| 2026-04-21 07:27 | -35.08465 | 149.34415 | 15343 ft | 382 kts | 7° |
| 2026-04-21 07:27 | -35.05837 | 149.34787 | 15342 ft | 382 kts | 6° |
| 2026-04-21 07:28 | -35.03188 | 149.35142 | 15342 ft | 382 kts | 6° |
| 2026-04-21 07:28 | -35.00550 | 149.35490 | 15346 ft | 381 kts | 6° |
| 2026-04-21 07:28 | -34.97911 | 149.35837 | 15343 ft | 382 kts | 6° |
| 2026-04-21 07:28 | -34.95271 | 149.36186 | 15340 ft | 382 kts | 6° |
| 2026-04-21 07:29 | -34.92637 | 149.36534 | 15339 ft | 381 kts | 6° |
| 2026-04-21 07:29 | -34.90001 | 149.36882 | 15340 ft | 381 kts | 6° |
| 2026-04-21 07:29 | -34.87361 | 149.37231 | 15339 ft | 381 kts | 6° |
| 2026-04-21 07:29 | -34.84717 | 149.37580 | 15347 ft | 381 kts | 6° |
| 2026-04-21 07:30 | -34.82084 | 149.37928 | 15348 ft | 381 kts | 6° |
| 2026-04-21 07:30 | -34.79444 | 149.38276 | 15345 ft | 382 kts | 6° |
| 2026-04-21 07:30 | -34.76815 | 149.38715 | 15343 ft | 380 kts | 15° |
| 2026-04-21 07:30 | -34.74397 | 149.39979 | 15347 ft | 381 kts | 34° |
| 2026-04-21 07:31 | -34.72473 | 149.42084 | 15344 ft | 376 kts | 54° |
| 2026-04-21 07:31 | -34.71109 | 149.44777 | 15345 ft | 373 kts | 65° |
| 2026-04-21 07:31 | -34.69973 | 149.47612 | 15343 ft | 373 kts | 67° |
| 2026-04-21 07:31 | -34.68860 | 149.50464 | 15350 ft | 373 kts | 67° |
| 2026-04-21 07:32 | -34.67715 | 149.53291 | 15350 ft | 373 kts | 66° |
| 2026-04-21 07:32 | -34.66532 | 149.56101 | 15347 ft | 373 kts | 65° |
| 2026-04-21 07:32 | -34.65328 | 149.58895 | 15348 ft | 374 kts | 64° |
| 2026-04-21 07:32 | -34.64113 | 149.61682 | 15356 ft | 373 kts | 64° |
| 2026-04-21 07:33 | -34.62895 | 149.64461 | 15355 ft | 373 kts | 64° |
| 2026-04-21 07:33 | -34.61677 | 149.67237 | 15351 ft | 373 kts | 64° |
| 2026-04-21 07:33 | -34.60454 | 149.70022 | 15354 ft | 374 kts | 64° |
| 2026-04-21 07:33 | -34.59231 | 149.72806 | 15360 ft | 374 kts | 64° |
| 2026-04-21 07:34 | -34.58008 | 149.75589 | 15358 ft | 374 kts | 64° |
| 2026-04-21 07:34 | -34.56767 | 149.78411 | 15358 ft | 374 kts | 64° |
| 2026-04-21 07:34 | -34.55544 | 149.81191 | 15358 ft | 374 kts | 64° |
| 2026-04-21 07:34 | -34.54319 | 149.83974 | 15359 ft | 374 kts | 64° |
| 2026-04-21 07:35 | -34.53093 | 149.86756 | 15359 ft | 374 kts | 64° |
| 2026-04-21 07:35 | -34.51868 | 149.89534 | 15364 ft | 374 kts | 64° |
| 2026-04-21 07:35 | -34.50644 | 149.92308 | 15357 ft | 373 kts | 64° |
| 2026-04-21 07:35 | -34.49418 | 149.95082 | 15362 ft | 373 kts | 64° |
| 2026-04-21 07:36 | -34.48207 | 149.97820 | 15362 ft | 373 kts | 64° |
| 2026-04-21 07:36 | -34.46963 | 150.00629 | 15365 ft | 374 kts | 64° |
| 2026-04-21 07:36 | -34.45735 | 150.03403 | 15362 ft | 373 kts | 64° |
| 2026-04-21 07:36 | -34.44506 | 150.06174 | 15359 ft | 373 kts | 64° |
| 2026-04-21 07:37 | -34.43276 | 150.08947 | 15192 ft | 374 kts | 64° |
| 2026-04-21 07:37 | -34.42045 | 150.11718 | 14956 ft | 372 kts | 64° |
| 2026-04-21 07:37 | -34.40827 | 150.14457 | 14722 ft | 368 kts | 64° |
| 2026-04-21 07:37 | -34.39613 | 150.17186 | 14485 ft | 367 kts | 64° |
| 2026-04-21 07:38 | -34.38404 | 150.19905 | 14260 ft | 366 kts | 64° |
| 2026-04-21 07:38 | -34.37200 | 150.22609 | 14009 ft | 365 kts | 64° |
| 2026-04-21 07:38 | -34.35995 | 150.25311 | 13744 ft | 363 kts | 64° |
| 2026-04-21 07:38 | -34.34814 | 150.27958 | 13487 ft | 361 kts | 64° |
| 2026-04-21 07:39 | -34.33606 | 150.30661 | 13216 ft | 360 kts | 64° |
| 2026-04-21 07:39 | -34.32418 | 150.33321 | 12963 ft | 359 kts | 64° |
| 2026-04-21 07:39 | -34.31237 | 150.35965 | 12702 ft | 356 kts | 64° |
| 2026-04-21 07:39 | -34.30074 | 150.38563 | 12461 ft | 355 kts | 64° |
| 2026-04-21 07:40 | -34.28901 | 150.41180 | 12210 ft | 353 kts | 64° |
| 2026-04-21 07:40 | -34.27736 | 150.43782 | 11957 ft | 351 kts | 64° |
| 2026-04-21 07:40 | -34.26576 | 150.46373 | 11713 ft | 349 kts | 64° |
| 2026-04-21 07:40 | -34.25425 | 150.48948 | 11469 ft | 348 kts | 64° |
| 2026-04-21 07:41 | -34.24280 | 150.51514 | 11228 ft | 346 kts | 64° |
| 2026-04-21 07:41 | -34.23136 | 150.54064 | 10982 ft | 345 kts | 64° |
| 2026-04-21 07:41 | -34.22003 | 150.56597 | 10815 ft | 339 kts | 64° |
| 2026-04-21 07:41 | -34.20893 | 150.59060 | 10705 ft | 327 kts | 64° |
| 2026-04-21 07:42 | -34.19832 | 150.61419 | 10596 ft | 314 kts | 64° |
| 2026-04-21 07:42 | -34.18809 | 150.63703 | 10454 ft | 303 kts | 64° |
| 2026-04-21 07:42 | -34.17815 | 150.65919 | 10168 ft | 297 kts | 64° |
| 2026-04-21 07:42 | -34.16839 | 150.68088 | 9909 ft | 291 kts | 64° |
| 2026-04-21 07:43 | -34.15874 | 150.70234 | 9767 ft | 293 kts | 64° |
| 2026-04-21 07:43 | -34.14902 | 150.72397 | 9634 ft | 293 kts | 64° |
| 2026-04-21 07:43 | -34.13934 | 150.74549 | 9504 ft | 291 kts | 64° |
| 2026-04-21 07:43 | -34.12967 | 150.76693 | 9373 ft | 290 kts | 65° |
| 2026-04-21 07:44 | -34.12000 | 150.78831 | 9243 ft | 290 kts | 65° |
| 2026-04-21 07:44 | -34.11034 | 150.80968 | 9116 ft | 290 kts | 64° |
| 2026-04-21 07:44 | -34.10072 | 150.83098 | 8987 ft | 289 kts | 65° |
| 2026-04-21 07:44 | -34.09109 | 150.85238 | 8703 ft | 290 kts | 64° |
| 2026-04-21 07:45 | -34.08148 | 150.87369 | 8342 ft | 289 kts | 65° |
| 2026-04-21 07:45 | -34.07192 | 150.89495 | 7985 ft | 287 kts | 65° |
| 2026-04-21 07:45 | -34.06248 | 150.91595 | 7636 ft | 285 kts | 66° |
| 2026-04-21 07:45 | -34.05306 | 150.93688 | 7274 ft | 282 kts | 65° |
| 2026-04-21 07:46 | -34.04369 | 150.95760 | 6932 ft | 281 kts | 63° |
| 2026-04-21 07:46 | -34.03071 | 150.97514 | 6550 ft | 285 kts | 37° |
| 2026-04-21 07:46 | -34.01241 | 150.98420 | 6158 ft | 288 kts | 9° |
| 2026-04-21 07:46 | -33.99248 | 150.98305 | 5795 ft | 290 kts | 348° |
| 2026-04-21 07:47 | -33.97269 | 150.97808 | 5420 ft | 291 kts | 348° |
| 2026-04-21 07:47 | -33.95292 | 150.97305 | 5043 ft | 290 kts | 348° |
| 2026-04-21 07:47 | -33.93321 | 150.96796 | 4658 ft | 289 kts | 347° |
| 2026-04-21 07:47 | -33.91376 | 150.96287 | 4281 ft | 288 kts | 348° |
| 2026-04-21 07:48 | -33.89411 | 150.95764 | 3891 ft | 287 kts | 348° |
| 2026-04-21 07:48 | -33.87467 | 150.95245 | 3525 ft | 286 kts | 347° |
| 2026-04-21 07:48 | -33.85522 | 150.94724 | 3162 ft | 286 kts | 347° |
| 2026-04-21 07:48 | -33.83589 | 150.94254 | 3014 ft | 283 kts | 356° |
| 2026-04-21 07:49 | -33.81680 | 150.94553 | 2991 ft | 275 kts | 25° |
| 2026-04-21 07:49 | -33.80125 | 150.95834 | 2984 ft | 268 kts | 53° |
| 2026-04-21 07:49 | -33.79071 | 150.97669 | 2992 ft | 266 kts | 71° |
| 2026-04-21 07:49 | -33.78634 | 150.99759 | 2981 ft | 256 kts | 84° |
| 2026-04-21 07:50 | -33.78427 | 151.01162 | 2996 ft | 261 kts | 84° |
| 2026-04-21 07:50 | -33.78119 | 151.03319 | 2989 ft | 260 kts | 85° |
| 2026-04-21 07:50 | -33.77820 | 151.05429 | 2996 ft | 256 kts | 84° |
| 2026-04-21 07:50 | -33.77563 | 151.07556 | 2995 ft | 256 kts | 89° |
| 2026-04-21 07:51 | -33.77525 | 151.09671 | 2987 ft | 252 kts | 96° |
| 2026-04-21 07:51 | -33.77891 | 151.11630 | 2987 ft | 232 kts | 122° |
| 2026-04-21 07:51 | -33.78923 | 151.13012 | 2874 ft | 218 kts | 147° |
| 2026-04-21 07:51 | -33.80249 | 151.13800 | 2569 ft | 208 kts | 161° |
| 2026-04-21 07:52 | -33.81575 | 151.14249 | 2291 ft | 187 kts | 167° |
| 2026-04-21 07:52 | -33.82780 | 151.14561 | 1974 ft | 168 kts | 169° |
| 2026-04-21 07:52 | -33.83844 | 151.14810 | 1826 ft | 143 kts | 170° |
| 2026-04-21 07:52 | -33.84764 | 151.15056 | 1663 ft | 130 kts | 165° |
| 2026-04-21 07:53 | -33.85657 | 151.15310 | 1524 ft | 129 kts | 169° |
| 2026-04-21 07:53 | -33.86562 | 151.15495 | 1343 ft | 135 kts | 169° |
| 2026-04-21 07:53 | -33.87473 | 151.15740 | 1099 ft | 131 kts | 167° |
| 2026-04-21 07:53 | -33.88362 | 151.15988 | 958 ft | 133 kts | 169° |
| 2026-04-21 07:54 | -33.89258 | 151.16216 | 707 ft | 128 kts | 168° |
| 2026-04-21 07:54 | -33.90159 | 151.16452 | 523 ft | 136 kts | 170° |
| 2026-04-21 07:54 | -33.91038 | 151.16664 | 373 ft | 125 kts | 170° |
| 2026-04-21 07:54 | -33.91953 | 151.16898 | 227 ft | 137 kts | 169° |
| 2026-04-21 07:55 | -33.92837 | 151.17126 | 88 ft | 129 kts | 168° |
| 2026-04-21 07:55 | -33.93688 | 151.17345 | 15 ft | 114 kts | 168° |
| 2026-04-21 07:55 | -33.94264 | 151.17501 | 25 ft | 55 kts | 171° |
| 2026-04-21 07:55 | -33.94459 | 151.17651 | 26 ft | 25 kts | 142° |
| 2026-04-21 07:56 | -33.94481 | 151.17674 | 27 ft | 4 kts | 139° |
| 2026-04-21 07:56 | -33.94513 | 151.17708 | 27 ft | 8 kts | 137° |
| 2026-04-21 07:56 | -33.94524 | 151.17742 | 23 ft | 0 kts | 99° |
| 2026-04-21 07:56 | -33.94526 | 151.17760 | 24 ft | 4 kts | 90° |
| 2026-04-21 07:57 | -33.94515 | 151.17772 | 25 ft | 1 kts | 32° |
| 2026-04-21 07:57 | -33.94498 | 151.17783 | 23 ft | 4 kts | 24° |
| 2026-04-21 07:57 | -33.94482 | 151.17783 | 24 ft | 0 kts | 343° |
| 2026-04-21 07:57 | -33.94478 | 151.17782 | 24 ft | 2 kts | 343° |
| 2026-04-21 07:58 | -33.94458 | 151.17775 | 23 ft | 4 kts | 343° |
| 2026-04-21 07:58 | -33.94418 | 151.17760 | 23 ft | 8 kts | 343° |
| 2026-04-21 07:58 | -33.94351 | 151.17740 | 22 ft | 12 kts | 347° |
| 2026-04-21 07:58 | -33.94250 | 151.17713 | 21 ft | 17 kts | 347° |
| 2026-04-21 07:59 | -33.94124 | 151.17676 | 22 ft | 20 kts | 346° |
| 2026-04-21 07:59 | -33.93975 | 151.17632 | 20 ft | 24 kts | 347° |
| 2026-04-21 07:59 | -33.93797 | 151.17584 | 18 ft | 28 kts | 347° |
| 2026-04-21 07:59 | -33.93595 | 151.17534 | 16 ft | 31 kts | 349° |
| 2026-04-21 08:00 | -33.93493 | 151.17511 | 22 ft | 5 kts | 356° |
| 2026-04-21 08:00 | -33.93468 | 151.17525 | 20 ft | 3 kts | 40° |
| 2026-04-21 08:00 | -33.93465 | 151.17532 | 21 ft | 0 kts | 65° |
| 2026-04-21 08:00 | -33.93431 | 151.17592 | 29 ft | 11 kts | 13° |
| 2026-04-21 08:01 | -33.93337 | 151.17581 | 30 ft | 16 kts | 346° |
| 2026-04-21 08:01 | -33.93302 | 151.17585 | 30 ft | 3 kts | 53° |
| 2026-04-21 08:01 | -33.93298 | 151.17618 | 30 ft | 5 kts | 97° |
| 2026-04-21 08:02 | -33.93306 | 151.17703 | 30 ft | 0 kts | 91° |